sensor_id;sensor_type;location;lat;lon;timestamp;temperature;humidity
43607;DHT22;29197;44.788;10.366;2023-04-01T00:00:51;15.70;99.90
43607;DHT22;29197;44.788;10.366;2023-04-01T00:03:40;15.70;99.90
43607;DHT22;29197;44.788;10.366;2023-04-01T00:06:29;15.70;99.90
43607;DHT22;29197;44.788;10.366;2023-04-01T00:09:18;15.60;99.90
43607;DHT22;29197;44.788;10.366;2023-04-01T00:12:06;15.70;99.90
43607;DHT22;29197;44.788;10.366;2023-04-01T00:14:55;15.70;99.90
43607;DHT22;29197;44.788;10.366;2023-04-01T00:17:45;15.70;99.90
43607;DHT22;29197;44.788;10.366;2023-04-01T00:20:33;15.80;99.90
43607;DHT22;29197;44.788;10.366;2023-04-01T00:23:22;15.80;99.90
43607;DHT22;29197;44.788;10.366;2023-04-01T00:26:10;15.90;99.90
43607;DHT22;29197;44.788;10.366;2023-04-01T00:29:01;15.90;99.90
43607;DHT22;29197;44.788;10.366;2023-04-01T00:31:49;15.90;99.90
43607;DHT22;29197;44.788;10.366;2023-04-01T00:34:40;15.90;99.90
43607;DHT22;29197;44.788;10.366;2023-04-01T00:37:28;16.00;99.90
43607;DHT22;29197;44.788;10.366;2023-04-01T00:40:25;15.90;99.90
43607;DHT22;29197;44.788;10.366;2023-04-01T00:43:15;15.90;99.90
43607;DHT22;29197;44.788;10.366;2023-04-01T00:46:05;15.90;99.90
43607;DHT22;29197;44.788;10.366;2023-04-01T00:48:55;15.90;99.90
43607;DHT22;29197;44.788;10.366;2023-04-01T00:51:48;15.80;99.90
43607;DHT22;29197;44.788;10.366;2023-04-01T00:54:38;15.80;99.90
43607;DHT22;29197;44.788;10.366;2023-04-01T00:57:32;15.80;99.90
43607;DHT22;29197;44.788;10.366;2023-04-01T01:00:23;15.70;99.90
43607;DHT22;29197;44.788;10.366;2023-04-01T01:03:13;15.70;99.90
43607;DHT22;29197;44.788;10.366;2023-04-01T01:06:09;15.40;99.90
43607;DHT22;29197;44.788;10.366;2023-04-01T01:09:10;14.90;99.90
43607;DHT22;29197;44.788;10.366;2023-04-01T01:12:06;14.90;99.90
43607;DHT22;29197;44.788;10.366;2023-04-01T01:15:02;14.70;99.90
43607;DHT22;29197;44.788;10.366;2023-04-01T01:17:59;13.60;99.90
43607;DHT22;29197;44.788;10.366;2023-04-01T01:21:06;13.50;99.90
43607;DHT22;29197;44.788;10.366;2023-04-01T01:27:10;13.70;99.90
43607;DHT22;29197;44.788;10.366;2023-04-01T01:30:21;14.00;99.90
43607;DHT22;29197;44.788;10.366;2023-04-01T01:36:26;14.50;99.90
43607;DHT22;29197;44.788;10.366;2023-04-01T01:39:17;14.80;99.90
43607;DHT22;29197;44.788;10.366;2023-04-01T01:42:09;15.00;99.90
43607;DHT22;29197;44.788;10.366;2023-04-01T01:45:00;15.00;99.90
43607;DHT22;29197;44.788;10.366;2023-04-01T01:47:50;15.00;99.90
43607;DHT22;29197;44.788;10.366;2023-04-01T01:50:40;15.00;99.90
43607;DHT22;29197;44.788;10.366;2023-04-01T01:53:30;15.00;99.90
43607;DHT22;29197;44.788;10.366;2023-04-01T01:56:22;15.00;99.90
43607;DHT22;29197;44.788;10.366;2023-04-01T01:59:12;15.00;99.90
43607;DHT22;29197;44.788;10.366;2023-04-01T02:02:02;15.00;99.90
43607;DHT22;29197;44.788;10.366;2023-04-01T02:04:55;14.90;99.90
43607;DHT22;29197;44.788;10.366;2023-04-01T02:07:46;15.00;99.90
43607;DHT22;29197;44.788;10.366;2023-04-01T02:10:41;15.00;99.90
43607;DHT22;29197;44.788;10.366;2023-04-01T02:13:36;14.90;99.90
43607;DHT22;29197;44.788;10.366;2023-04-01T02:16:28;14.90;99.90
43607;DHT22;29197;44.788;10.366;2023-04-01T02:19:18;14.80;99.90
43607;DHT22;29197;44.788;10.366;2023-04-01T02:22:12;14.60;99.90
43607;DHT22;29197;44.788;10.366;2023-04-01T02:25:07;14.80;99.90
43607;DHT22;29197;44.788;10.366;2023-04-01T02:27:59;14.70;99.90
43607;DHT22;29197;44.788;10.366;2023-04-01T02:30:49;14.70;99.90
43607;DHT22;29197;44.788;10.366;2023-04-01T02:33:39;14.70;99.90
43607;DHT22;29197;44.788;10.366;2023-04-01T02:36:28;14.60;99.90
43607;DHT22;29197;44.788;10.366;2023-04-01T02:39:17;14.60;99.90
43607;DHT22;29197;44.788;10.366;2023-04-01T02:42:06;14.60;99.90
43607;DHT22;29197;44.788;10.366;2023-04-01T02:44:56;14.60;99.90
43607;DHT22;29197;44.788;10.366;2023-04-01T02:47:44;14.60;99.90
43607;DHT22;29197;44.788;10.366;2023-04-01T02:50:33;14.50;99.90
43607;DHT22;29197;44.788;10.366;2023-04-01T02:56:10;14.30;99.90
43607;DHT22;29197;44.788;10.366;2023-04-01T02:58:58;14.40;99.90
43607;DHT22;29197;44.788;10.366;2023-04-01T03:18:43;14.00;99.90
43607;DHT22;29197;44.788;10.366;2023-04-01T03:21:32;14.00;99.90
43607;DHT22;29197;44.788;10.366;2023-04-01T03:24:20;14.00;99.90
43607;DHT22;29197;44.788;10.366;2023-04-01T03:27:09;13.80;99.90
43607;DHT22;29197;44.788;10.366;2023-04-01T03:29:57;13.70;99.90
43607;DHT22;29197;44.788;10.366;2023-04-01T03:32:46;13.60;99.90
43607;DHT22;29197;44.788;10.366;2023-04-01T03:35:36;13.80;99.90
43607;DHT22;29197;44.788;10.366;2023-04-01T03:38:25;13.80;99.90
43607;DHT22;29197;44.788;10.366;2023-04-01T03:41:14;13.80;99.90
43607;DHT22;29197;44.788;10.366;2023-04-01T03:44:02;13.80;99.90
43607;DHT22;29197;44.788;10.366;2023-04-01T03:46:51;13.90;99.90
43607;DHT22;29197;44.788;10.366;2023-04-01T03:49:39;13.80;99.90
43607;DHT22;29197;44.788;10.366;2023-04-01T03:52:29;13.90;99.90
43607;DHT22;29197;44.788;10.366;2023-04-01T03:55:18;13.90;99.90
43607;DHT22;29197;44.788;10.366;2023-04-01T03:58:07;13.90;99.90
43607;DHT22;29197;44.788;10.366;2023-04-01T04:00:56;13.70;99.90
43607;DHT22;29197;44.788;10.366;2023-04-01T04:03:44;13.80;99.90
43607;DHT22;29197;44.788;10.366;2023-04-01T04:06:33;13.70;99.90
43607;DHT22;29197;44.788;10.366;2023-04-01T04:09:23;13.60;99.90
43607;DHT22;29197;44.788;10.366;2023-04-01T04:12:12;13.60;99.90
43607;DHT22;29197;44.788;10.366;2023-04-01T04:15:00;13.60;99.90
43607;DHT22;29197;44.788;10.366;2023-04-01T04:17:49;13.60;99.90
43607;DHT22;29197;44.788;10.366;2023-04-01T04:20:43;13.60;99.90
43607;DHT22;29197;44.788;10.366;2023-04-01T04:23:33;13.60;99.90
43607;DHT22;29197;44.788;10.366;2023-04-01T04:26:23;13.60;99.90
43607;DHT22;29197;44.788;10.366;2023-04-01T04:29:11;13.30;99.90
43607;DHT22;29197;44.788;10.366;2023-04-01T04:32:00;13.00;99.90
43607;DHT22;29197;44.788;10.366;2023-04-01T04:34:48;13.10;99.90
43607;DHT22;29197;44.788;10.366;2023-04-01T04:37:37;12.70;99.90
43607;DHT22;29197;44.788;10.366;2023-04-01T04:40:25;12.70;99.90
43607;DHT22;29197;44.788;10.366;2023-04-01T04:43:16;12.40;99.90
43607;DHT22;29197;44.788;10.366;2023-04-01T04:46:06;12.30;99.90
43607;DHT22;29197;44.788;10.366;2023-04-01T04:48:54;12.40;99.90
43607;DHT22;29197;44.788;10.366;2023-04-01T04:51:43;12.40;99.90
43607;DHT22;29197;44.788;10.366;2023-04-01T04:54:32;12.00;99.90
43607;DHT22;29197;44.788;10.366;2023-04-01T04:57:20;12.10;99.90
43607;DHT22;29197;44.788;10.366;2023-04-01T05:00:11;12.20;99.90
43607;DHT22;29197;44.788;10.366;2023-04-01T05:03:00;12.30;99.90
43607;DHT22;29197;44.788;10.366;2023-04-01T05:05:49;12.50;99.90
43607;DHT22;29197;44.788;10.366;2023-04-01T05:08:38;12.80;99.90
43607;DHT22;29197;44.788;10.366;2023-04-01T05:11:27;12.90;99.90
43607;DHT22;29197;44.788;10.366;2023-04-01T05:14:16;13.10;99.90
43607;DHT22;29197;44.788;10.366;2023-04-01T05:17:08;13.00;99.90
43607;DHT22;29197;44.788;10.366;2023-04-01T05:19:57;13.00;99.90
43607;DHT22;29197;44.788;10.366;2023-04-01T05:22:45;13.00;99.90
43607;DHT22;29197;44.788;10.366;2023-04-01T05:25:36;13.00;99.90
43607;DHT22;29197;44.788;10.366;2023-04-01T05:28:25;13.00;99.90
43607;DHT22;29197;44.788;10.366;2023-04-01T05:31:14;12.80;99.90
43607;DHT22;29197;44.788;10.366;2023-04-01T05:34:04;12.70;99.90
43607;DHT22;29197;44.788;10.366;2023-04-01T05:36:52;12.80;99.90
43607;DHT22;29197;44.788;10.366;2023-04-01T05:39:41;12.90;99.90
43607;DHT22;29197;44.788;10.366;2023-04-01T05:42:29;12.90;99.90
43607;DHT22;29197;44.788;10.366;2023-04-01T05:45:18;12.90;99.90
43607;DHT22;29197;44.788;10.366;2023-04-01T05:48:06;13.00;99.90
43607;DHT22;29197;44.788;10.366;2023-04-01T05:50:56;13.10;99.90
43607;DHT22;29197;44.788;10.366;2023-04-01T05:53:44;13.20;99.90
43607;DHT22;29197;44.788;10.366;2023-04-01T05:56:33;12.60;99.90
43607;DHT22;29197;44.788;10.366;2023-04-01T05:59:21;12.60;99.90
43607;DHT22;29197;44.788;10.366;2023-04-01T06:02:10;12.00;99.90
43607;DHT22;29197;44.788;10.366;2023-04-01T06:05:03;12.20;99.90
43607;DHT22;29197;44.788;10.366;2023-04-01T06:08:05;12.40;99.90
43607;DHT22;29197;44.788;10.366;2023-04-01T06:11:04;12.60;99.90
43607;DHT22;29197;44.788;10.366;2023-04-01T06:14:10;12.70;99.90
43607;DHT22;29197;44.788;10.366;2023-04-01T06:17:13;12.80;99.90
43607;DHT22;29197;44.788;10.366;2023-04-01T06:20:12;12.80;99.90
43607;DHT22;29197;44.788;10.366;2023-04-01T06:26:24;12.70;99.90
43607;DHT22;29197;44.788;10.366;2023-04-01T06:29:43;12.40;99.90
43607;DHT22;29197;44.788;10.366;2023-04-01T06:32:59;12.30;99.90
43607;DHT22;29197;44.788;10.366;2023-04-01T06:36:03;12.60;99.90
43607;DHT22;29197;44.788;10.366;2023-04-01T06:42:19;13.20;99.90
43607;DHT22;29197;44.788;10.366;2023-04-01T06:45:27;13.40;99.90
43607;DHT22;29197;44.788;10.366;2023-04-01T06:48:38;14.80;99.90
43607;DHT22;29197;44.788;10.366;2023-04-01T06:51:37;13.70;99.90
43607;DHT22;29197;44.788;10.366;2023-04-01T06:54:32;13.90;99.90
43607;DHT22;29197;44.788;10.366;2023-04-01T06:57:28;13.90;99.90
43607;DHT22;29197;44.788;10.366;2023-04-01T07:00:23;13.50;99.90
43607;DHT22;29197;44.788;10.366;2023-04-01T07:03:20;14.10;99.90
43607;DHT22;29197;44.788;10.366;2023-04-01T07:23:22;14.70;99.90
43607;DHT22;29197;44.788;10.366;2023-04-01T07:26:17;14.70;99.90
43607;DHT22;29197;44.788;10.366;2023-04-01T07:29:09;14.80;99.90
43607;DHT22;29197;44.788;10.366;2023-04-01T07:32:18;14.80;99.90
43607;DHT22;29197;44.788;10.366;2023-04-01T07:35:25;15.00;99.90
43607;DHT22;29197;44.788;10.366;2023-04-01T07:38:25;15.10;99.90
43607;DHT22;29197;44.788;10.366;2023-04-01T07:41:22;15.40;99.90
43607;DHT22;29197;44.788;10.366;2023-04-01T07:44:18;15.40;99.90
43607;DHT22;29197;44.788;10.366;2023-04-01T07:47:30;15.70;99.90
43607;DHT22;29197;44.788;10.366;2023-04-01T07:50:25;15.80;99.90
43607;DHT22;29197;44.788;10.366;2023-04-01T07:53:22;14.90;99.90
43607;DHT22;29197;44.788;10.366;2023-04-01T07:56:18;16.00;99.90
43607;DHT22;29197;44.788;10.366;2023-04-01T07:59:17;16.10;99.90
43607;DHT22;29197;44.788;10.366;2023-04-01T08:02:18;16.30;99.90
43607;DHT22;29197;44.788;10.366;2023-04-01T08:05:17;16.50;99.90
43607;DHT22;29197;44.788;10.366;2023-04-01T08:08:13;16.70;99.90
43607;DHT22;29197;44.788;10.366;2023-04-01T08:11:13;16.80;99.90
43607;DHT22;29197;44.788;10.366;2023-04-01T08:14:11;16.40;99.90
43607;DHT22;29197;44.788;10.366;2023-04-01T08:17:12;17.00;99.90
43607;DHT22;29197;44.788;10.366;2023-04-01T08:20:14;17.00;99.90
43607;DHT22;29197;44.788;10.366;2023-04-01T08:23:10;17.30;99.90
43607;DHT22;29197;44.788;10.366;2023-04-01T08:26:02;17.40;99.90
43607;DHT22;29197;44.788;10.366;2023-04-01T08:28:55;17.60;99.90
43607;DHT22;29197;44.788;10.366;2023-04-01T08:31:49;17.60;99.90
43607;DHT22;29197;44.788;10.366;2023-04-01T08:34:45;17.50;99.90
43607;DHT22;29197;44.788;10.366;2023-04-01T08:37:38;17.30;99.90
43607;DHT22;29197;44.788;10.366;2023-04-01T08:40:56;17.50;99.90
43607;DHT22;29197;44.788;10.366;2023-04-01T08:47:33;17.90;99.90
43607;DHT22;29197;44.788;10.366;2023-04-01T08:51:10;18.00;99.90
43607;DHT22;29197;44.788;10.366;2023-04-01T08:54:26;18.00;99.90
43607;DHT22;29197;44.788;10.366;2023-04-01T08:57:24;18.10;99.90
43607;DHT22;29197;44.788;10.366;2023-04-01T09:00:27;18.40;99.90
43607;DHT22;29197;44.788;10.366;2023-04-01T09:03:31;18.50;99.90
43607;DHT22;29197;44.788;10.366;2023-04-01T09:06:33;18.60;99.90
43607;DHT22;29197;44.788;10.366;2023-04-01T09:09:50;18.70;99.90
43607;DHT22;29197;44.788;10.366;2023-04-01T09:12:52;18.70;99.90
43607;DHT22;29197;44.788;10.366;2023-04-01T09:15:59;18.70;99.90
43607;DHT22;29197;44.788;10.366;2023-04-01T09:19:05;18.60;99.90
43607;DHT22;29197;44.788;10.366;2023-04-01T09:22:25;18.60;99.90
43607;DHT22;29197;44.788;10.366;2023-04-01T09:25:36;18.70;99.90
43607;DHT22;29197;44.788;10.366;2023-04-01T09:28:28;18.90;99.90
43607;DHT22;29197;44.788;10.366;2023-04-01T09:31:31;19.10;99.90
43607;DHT22;29197;44.788;10.366;2023-04-01T09:37:35;19.00;99.90
43607;DHT22;29197;44.788;10.366;2023-04-01T09:40:37;19.10;99.90
43607;DHT22;29197;44.788;10.366;2023-04-01T09:43:55;19.20;99.90
43607;DHT22;29197;44.788;10.366;2023-04-01T09:46:56;19.30;99.90
43607;DHT22;29197;44.788;10.366;2023-04-01T09:49:59;19.40;99.90
43607;DHT22;29197;44.788;10.366;2023-04-01T09:53:04;19.50;99.90
43607;DHT22;29197;44.788;10.366;2023-04-01T09:59:29;19.60;99.90
43607;DHT22;29197;44.788;10.366;2023-04-01T10:03:02;19.80;99.90
43607;DHT22;29197;44.788;10.366;2023-04-01T10:19:25;20.30;99.90
43607;DHT22;29197;44.788;10.366;2023-04-01T10:22:39;20.40;99.90
43607;DHT22;29197;44.788;10.366;2023-04-01T10:25:49;20.50;99.90
43607;DHT22;29197;44.788;10.366;2023-04-01T10:32:09;20.80;99.90
43607;DHT22;29197;44.788;10.366;2023-04-01T10:35:29;20.80;99.90
43607;DHT22;29197;44.788;10.366;2023-04-01T10:48:19;21.70;99.90
43607;DHT22;29197;44.788;10.366;2023-04-01T10:51:20;21.60;99.90
43607;DHT22;29197;44.788;10.366;2023-04-01T10:58:03;21.90;99.90
43607;DHT22;29197;44.788;10.366;2023-04-01T11:01:14;22.00;99.90
43607;DHT22;29197;44.788;10.366;2023-04-01T11:04:57;22.20;99.90
43607;DHT22;29197;44.788;10.366;2023-04-01T11:08:31;22.60;99.90
43607;DHT22;29197;44.788;10.366;2023-04-01T11:28:00;23.60;77.60
43607;DHT22;29197;44.788;10.366;2023-04-01T11:31:04;23.20;73.00
43607;DHT22;29197;44.788;10.366;2023-04-01T11:34:05;23.40;76.10
43607;DHT22;29197;44.788;10.366;2023-04-01T11:37:05;23.90;76.90
43607;DHT22;29197;44.788;10.366;2023-04-01T11:40:11;24.30;76.60
43607;DHT22;29197;44.788;10.366;2023-04-01T11:43:10;24.60;72.50
43607;DHT22;29197;44.788;10.366;2023-04-01T11:46:25;24.70;72.90
43607;DHT22;29197;44.788;10.366;2023-04-01T11:49:27;24.90;74.40
43607;DHT22;29197;44.788;10.366;2023-04-01T11:55:23;25.30;69.00
43607;DHT22;29197;44.788;10.366;2023-04-01T11:58:23;26.60;68.30
43607;DHT22;29197;44.788;10.366;2023-04-01T12:01:27;25.40;67.90
43607;DHT22;29197;44.788;10.366;2023-04-01T12:04:34;25.20;69.20
43607;DHT22;29197;44.788;10.366;2023-04-01T12:07:50;25.20;69.80
43607;DHT22;29197;44.788;10.366;2023-04-01T12:10:46;25.30;69.90
43607;DHT22;29197;44.788;10.366;2023-04-01T12:13:42;25.50;68.50
43607;DHT22;29197;44.788;10.366;2023-04-01T12:16:47;25.80;68.60
43607;DHT22;29197;44.788;10.366;2023-04-01T12:19:44;25.90;67.70
43607;DHT22;29197;44.788;10.366;2023-04-01T12:22:46;25.90;66.80
43607;DHT22;29197;44.788;10.366;2023-04-01T12:29:03;26.00;67.30
43607;DHT22;29197;44.788;10.366;2023-04-01T12:32:02;26.10;67.70
43607;DHT22;29197;44.788;10.366;2023-04-01T12:35:07;26.20;67.40
43607;DHT22;29197;44.788;10.366;2023-04-01T12:38:14;26.30;68.40
43607;DHT22;29197;44.788;10.366;2023-04-01T12:41:14;26.30;66.00
43607;DHT22;29197;44.788;10.366;2023-04-01T12:44:32;26.40;64.50
43607;DHT22;29197;44.788;10.366;2023-04-01T12:47:41;26.50;63.60
43607;DHT22;29197;44.788;10.366;2023-04-01T12:50:44;26.50;64.90
43607;DHT22;29197;44.788;10.366;2023-04-01T12:57:28;26.60;63.40
43607;DHT22;29197;44.788;10.366;2023-04-01T13:00:46;26.60;64.70
43607;DHT22;29197;44.788;10.366;2023-04-01T13:03:58;26.70;64.20
43607;DHT22;29197;44.788;10.366;2023-04-01T13:07:03;26.70;64.90
43607;DHT22;29197;44.788;10.366;2023-04-01T13:10:03;26.80;65.60
43607;DHT22;29197;44.788;10.366;2023-04-01T13:13:20;27.00;64.60
43607;DHT22;29197;44.788;10.366;2023-04-01T13:16:14;27.10;65.00
43607;DHT22;29197;44.788;10.366;2023-04-01T13:19:08;27.00;65.00
43607;DHT22;29197;44.788;10.366;2023-04-01T13:22:01;26.90;63.30
43607;DHT22;29197;44.788;10.366;2023-04-01T13:24:55;26.70;63.90
43607;DHT22;29197;44.788;10.366;2023-04-01T13:27:52;26.70;64.40
43607;DHT22;29197;44.788;10.366;2023-04-01T13:30:48;26.70;63.40
43607;DHT22;29197;44.788;10.366;2023-04-01T13:33:42;26.60;64.20
43607;DHT22;29197;44.788;10.366;2023-04-01T13:36:39;26.50;65.10
43607;DHT22;29197;44.788;10.366;2023-04-01T13:42:54;26.40;66.30
43607;DHT22;29197;44.788;10.366;2023-04-01T13:52:50;26.50;65.10
43607;DHT22;29197;44.788;10.366;2023-04-01T13:55:57;26.60;66.10
43607;DHT22;29197;44.788;10.366;2023-04-01T13:59:18;26.70;64.10
43607;DHT22;29197;44.788;10.366;2023-04-01T14:02:40;26.60;66.40
43607;DHT22;29197;44.788;10.366;2023-04-01T14:05:44;26.60;65.30
43607;DHT22;29197;44.788;10.366;2023-04-01T14:08:47;26.60;64.80
43607;DHT22;29197;44.788;10.366;2023-04-01T14:11:46;26.50;63.50
43607;DHT22;29197;44.788;10.366;2023-04-01T14:14:55;26.30;63.60
43607;DHT22;29197;44.788;10.366;2023-04-01T14:17:55;26.20;65.00
43607;DHT22;29197;44.788;10.366;2023-04-01T14:20:51;25.90;64.30
43607;DHT22;29197;44.788;10.366;2023-04-01T14:27:12;25.30;65.80
43607;DHT22;29197;44.788;10.366;2023-04-01T14:30:32;25.50;64.60
43607;DHT22;29197;44.788;10.366;2023-04-01T14:33:34;24.30;65.30
43607;DHT22;29197;44.788;10.366;2023-04-01T14:39:57;25.70;63.50
43607;DHT22;29197;44.788;10.366;2023-04-01T14:42:58;25.70;63.30
43607;DHT22;29197;44.788;10.366;2023-04-01T14:46:12;25.70;64.90
43607;DHT22;29197;44.788;10.366;2023-04-01T14:49:05;25.70;63.60
43607;DHT22;29197;44.788;10.366;2023-04-01T14:52:11;25.60;63.90
43607;DHT22;29197;44.788;10.366;2023-04-01T14:55:17;25.60;63.50
43607;DHT22;29197;44.788;10.366;2023-04-01T14:58:10;25.50;65.10
43607;DHT22;29197;44.788;10.366;2023-04-01T15:04:09;25.20;64.00
43607;DHT22;29197;44.788;10.366;2023-04-01T15:07:23;25.10;63.30
43607;DHT22;29197;44.788;10.366;2023-04-01T15:10:40;25.00;64.20
43607;DHT22;29197;44.788;10.366;2023-04-01T15:17:18;24.80;64.30
43607;DHT22;29197;44.788;10.366;2023-04-01T15:20:25;24.70;65.00
43607;DHT22;29197;44.788;10.366;2023-04-01T15:23:28;24.70;65.10
43607;DHT22;29197;44.788;10.366;2023-04-01T15:26:33;24.60;64.50
43607;DHT22;29197;44.788;10.366;2023-04-01T15:29:40;24.50;65.30
43607;DHT22;29197;44.788;10.366;2023-04-01T15:32:43;24.40;65.60
43607;DHT22;29197;44.788;10.366;2023-04-01T15:35:39;24.30;65.60
43607;DHT22;29197;44.788;10.366;2023-04-01T15:38:36;24.30;63.60
43607;DHT22;29197;44.788;10.366;2023-04-01T15:41:36;24.20;64.50
43607;DHT22;29197;44.788;10.366;2023-04-01T15:44:47;23.90;64.20
43607;DHT22;29197;44.788;10.366;2023-04-01T15:47:42;23.90;65.80
43607;DHT22;29197;44.788;10.366;2023-04-01T15:50:50;24.00;66.20
43607;DHT22;29197;44.788;10.366;2023-04-01T15:53:56;24.10;66.50
43607;DHT22;29197;44.788;10.366;2023-04-01T15:56:55;23.90;68.20
43607;DHT22;29197;44.788;10.366;2023-04-01T16:00:13;23.90;67.40
43607;DHT22;29197;44.788;10.366;2023-04-01T16:03:30;23.80;63.90
43607;DHT22;29197;44.788;10.366;2023-04-01T16:06:38;23.60;64.90
43607;DHT22;29197;44.788;10.366;2023-04-01T16:09:42;23.40;64.70
43607;DHT22;29197;44.788;10.366;2023-04-01T16:12:47;23.30;65.20
43607;DHT22;29197;44.788;10.366;2023-04-01T16:15:41;23.20;65.70
43607;DHT22;29197;44.788;10.366;2023-04-01T16:18:46;23.00;67.70
43607;DHT22;29197;44.788;10.366;2023-04-01T16:21:44;22.90;68.30
43607;DHT22;29197;44.788;10.366;2023-04-01T16:24:37;22.90;68.90
43607;DHT22;29197;44.788;10.366;2023-04-01T16:27:30;22.80;69.10
43607;DHT22;29197;44.788;10.366;2023-04-01T16:30:32;22.70;69.40
43607;DHT22;29197;44.788;10.366;2023-04-01T16:33:24;22.40;69.50
43607;DHT22;29197;44.788;10.366;2023-04-01T16:36:25;22.20;70.80
43607;DHT22;29197;44.788;10.366;2023-04-01T16:39:27;21.70;72.00
43607;DHT22;29197;44.788;10.366;2023-04-01T16:42:26;21.50;76.00
43607;DHT22;29197;44.788;10.366;2023-04-01T16:45:24;21.40;78.40
43607;DHT22;29197;44.788;10.366;2023-04-01T16:48:16;21.30;80.30
43607;DHT22;29197;44.788;10.366;2023-04-01T16:51:12;21.20;80.00
43607;DHT22;29197;44.788;10.366;2023-04-01T16:54:10;20.80;89.80
43607;DHT22;29197;44.788;10.366;2023-04-01T16:57:16;20.50;82.30
43607;DHT22;29197;44.788;10.366;2023-04-01T17:03:12;20.10;83.40
43607;DHT22;29197;44.788;10.366;2023-04-01T17:06:18;20.10;83.50
43607;DHT22;29197;44.788;10.366;2023-04-01T17:09:30;20.00;84.10
43607;DHT22;29197;44.788;10.366;2023-04-01T17:12:26;20.20;83.60
43607;DHT22;29197;44.788;10.366;2023-04-01T17:15:21;20.30;83.80
43607;DHT22;29197;44.788;10.366;2023-04-01T17:18:18;20.30;83.90
43607;DHT22;29197;44.788;10.366;2023-04-01T17:21:17;20.40;84.20
43607;DHT22;29197;44.788;10.366;2023-04-01T17:24:19;20.20;83.90
43607;DHT22;29197;44.788;10.366;2023-04-01T17:27:22;20.20;85.00
43607;DHT22;29197;44.788;10.366;2023-04-01T17:30:28;20.10;85.40
43607;DHT22;29197;44.788;10.366;2023-04-01T17:33:36;19.90;86.30
43607;DHT22;29197;44.788;10.366;2023-04-01T17:36:40;19.90;86.80
43607;DHT22;29197;44.788;10.366;2023-04-01T17:39:42;19.80;87.90
43607;DHT22;29197;44.788;10.366;2023-04-01T17:42:40;19.70;89.00
43607;DHT22;29197;44.788;10.366;2023-04-01T17:45:33;19.60;89.70
43607;DHT22;29197;44.788;10.366;2023-04-01T17:48:36;19.50;90.20
43607;DHT22;29197;44.788;10.366;2023-04-01T17:51:32;19.40;90.60
43607;DHT22;29197;44.788;10.366;2023-04-01T17:54:28;19.40;90.70
43607;DHT22;29197;44.788;10.366;2023-04-01T17:57:42;19.40;90.60
43607;DHT22;29197;44.788;10.366;2023-04-01T18:00:37;19.40;90.70
43607;DHT22;29197;44.788;10.366;2023-04-01T18:04:00;19.40;90.60
43607;DHT22;29197;44.788;10.366;2023-04-01T18:10:25;19.10;91.10
43607;DHT22;29197;44.788;10.366;2023-04-01T18:13:33;19.10;90.40
43607;DHT22;29197;44.788;10.366;2023-04-01T18:16:34;19.00;90.90
43607;DHT22;29197;44.788;10.366;2023-04-01T18:19:32;19.20;90.80
43607;DHT22;29197;44.788;10.366;2023-04-01T18:22:28;19.00;91.00
43607;DHT22;29197;44.788;10.366;2023-04-01T18:25:24;19.00;91.10
43607;DHT22;29197;44.788;10.366;2023-04-01T18:28:24;19.00;91.20
43607;DHT22;29197;44.788;10.366;2023-04-01T18:31:17;19.00;91.20
43607;DHT22;29197;44.788;10.366;2023-04-01T18:34:10;18.90;91.30
43607;DHT22;29197;44.788;10.366;2023-04-01T18:37:11;18.50;92.20
43607;DHT22;29197;44.788;10.366;2023-04-01T18:40:12;18.40;93.30
43607;DHT22;29197;44.788;10.366;2023-04-01T18:44:38;18.40;92.40
43607;DHT22;29197;44.788;10.366;2023-04-01T18:46:57;18.40;92.30
43607;DHT22;29197;44.788;10.366;2023-04-01T18:49:54;18.50;92.40
43607;DHT22;29197;44.788;10.366;2023-04-01T18:52:44;18.40;92.70
43607;DHT22;29197;44.788;10.366;2023-04-01T18:55:37;18.40;92.90
43607;DHT22;29197;44.788;10.366;2023-04-01T18:58:34;18.40;93.00
43607;DHT22;29197;44.788;10.366;2023-04-01T19:01:26;17.90;92.90
43607;DHT22;29197;44.788;10.366;2023-04-01T19:04:23;18.60;93.10
43607;DHT22;29197;44.788;10.366;2023-04-01T19:10:42;18.70;93.10
43607;DHT22;29197;44.788;10.366;2023-04-01T19:13:42;18.70;93.20
43607;DHT22;29197;44.788;10.366;2023-04-01T19:16:43;18.70;93.40
43607;DHT22;29197;44.788;10.366;2023-04-01T19:19:49;18.70;93.50
43607;DHT22;29197;44.788;10.366;2023-04-01T19:22:49;18.70;93.50
43607;DHT22;29197;44.788;10.366;2023-04-01T19:25:43;18.80;93.60
43607;DHT22;29197;44.788;10.366;2023-04-01T19:28:43;18.70;93.70
43607;DHT22;29197;44.788;10.366;2023-04-01T19:31:46;18.60;94.00
43607;DHT22;29197;44.788;10.366;2023-04-01T19:34:48;18.50;94.30
43607;DHT22;29197;44.788;10.366;2023-04-01T19:37:39;18.40;94.70
43607;DHT22;29197;44.788;10.366;2023-04-01T19:40:37;18.30;95.00
43607;DHT22;29197;44.788;10.366;2023-04-01T19:43:44;18.10;95.40
43607;DHT22;29197;44.788;10.366;2023-04-01T19:46:38;17.80;95.70
43607;DHT22;29197;44.788;10.366;2023-04-01T19:49:39;17.60;95.80
43607;DHT22;29197;44.788;10.366;2023-04-01T19:52:33;17.70;95.90
43607;DHT22;29197;44.788;10.366;2023-04-01T19:55:33;17.70;96.10
43607;DHT22;29197;44.788;10.366;2023-04-01T19:58:28;17.70;96.30
43607;DHT22;29197;44.788;10.366;2023-04-01T20:01:24;17.50;96.70
43607;DHT22;29197;44.788;10.366;2023-04-01T20:04:35;17.40;98.20
43607;DHT22;29197;44.788;10.366;2023-04-01T20:07:29;17.10;97.30
43607;DHT22;29197;44.788;10.366;2023-04-01T20:10:23;17.20;99.40
43607;DHT22;29197;44.788;10.366;2023-04-01T20:13:21;17.20;99.90
43607;DHT22;29197;44.788;10.366;2023-04-01T20:16:14;17.20;97.70
43607;DHT22;29197;44.788;10.366;2023-04-01T20:19:03;17.40;97.20
43607;DHT22;29197;44.788;10.366;2023-04-01T20:21:56;17.40;97.10
43607;DHT22;29197;44.788;10.366;2023-04-01T20:48:53;17.40;97.00
43607;DHT22;29197;44.788;10.366;2023-04-01T20:51:51;17.40;97.30
43607;DHT22;29197;44.788;10.366;2023-04-01T20:54:52;17.30;97.40
43607;DHT22;29197;44.788;10.366;2023-04-01T20:57:48;17.00;97.80
43607;DHT22;29197;44.788;10.366;2023-04-01T21:00:49;16.80;98.00
43607;DHT22;29197;44.788;10.366;2023-04-01T21:03:45;17.00;97.80
43607;DHT22;29197;44.788;10.366;2023-04-01T21:06:44;16.70;97.90
43607;DHT22;29197;44.788;10.366;2023-04-01T21:09:45;16.60;98.00
43607;DHT22;29197;44.788;10.366;2023-04-01T21:12:45;16.90;97.80
43607;DHT22;29197;44.788;10.366;2023-04-01T21:15:59;16.90;97.60
43607;DHT22;29197;44.788;10.366;2023-04-01T21:22:18;16.90;97.60
43607;DHT22;29197;44.788;10.366;2023-04-01T21:25:26;16.90;97.30